createdAt,value
2022-08-12T00:00:46.239Z,21.80
2022-08-12T00:03:31.099Z,21.72
2022-08-12T00:06:24.246Z,21.73
2022-08-12T00:09:09.837Z,21.62
2022-08-12T00:15:06.209Z,21.53
2022-08-12T00:20:51.400Z,21.39
2022-08-12T00:23:39.270Z,21.35
2022-08-12T00:26:33.720Z,21.30
2022-08-12T00:29:18.645Z,21.28
2022-08-12T00:32:04.010Z,21.26
2022-08-12T00:34:51.569Z,21.19
2022-08-12T00:37:38.895Z,21.12
2022-08-12T00:40:25.911Z,21.10
2022-08-12T00:45:51.460Z,21.02
2022-08-12T00:52:06.584Z,20.89
2022-08-12T00:54:38.333Z,20.86
2022-08-12T00:57:10.745Z,20.84
2022-08-12T00:59:43.363Z,20.81
2022-08-12T01:02:12.674Z,20.80
2022-08-12T01:04:59.443Z,20.80
2022-08-12T01:07:46.691Z,20.76
2022-08-12T01:10:32.796Z,20.72
2022-08-12T01:13:18.640Z,20.68
2022-08-12T01:15:51.586Z,20.63
2022-08-12T01:18:32.590Z,20.61
2022-08-12T01:21:17.977Z,20.57
2022-08-12T01:23:50.422Z,20.49
2022-08-12T01:29:03.565Z,20.46
2022-08-12T01:31:30.590Z,20.42
2022-08-12T01:34:04.253Z,20.37
2022-08-12T01:36:41.382Z,20.31
2022-08-12T01:39:08.896Z,20.29
2022-08-12T01:41:40.028Z,20.26
2022-08-12T01:44:07.162Z,20.19
2022-08-12T01:46:59.069Z,20.16
2022-08-12T01:49:45.099Z,20.14
2022-08-12T01:52:27.307Z,20.11
2022-08-12T01:54:55.061Z,20.03
2022-08-12T01:57:57.949Z,20.00
2022-08-12T02:00:43.175Z,19.99
2022-08-12T02:04:00.412Z,19.94
2022-08-12T02:06:52.441Z,19.90
2022-08-12T02:09:42.412Z,19.88
2022-08-12T02:12:34.667Z,19.82
2022-08-12T02:15:27.572Z,19.78
2022-08-12T02:18:08.289Z,19.75
2022-08-12T02:20:52.005Z,19.71
2022-08-12T02:23:22.742Z,19.66
2022-08-12T02:25:51.032Z,19.61
2022-08-12T02:28:17.609Z,19.60
2022-08-12T02:30:44.431Z,19.56
2022-08-12T02:33:11.517Z,19.54
2022-08-12T02:35:39.682Z,19.50
2022-08-12T02:38:17.080Z,19.46
2022-08-12T02:40:45.382Z,19.44
2022-08-12T02:43:17.494Z,19.41
2022-08-12T02:45:53.554Z,19.42
2022-08-12T02:48:27.229Z,19.41
2022-08-12T02:50:57.846Z,19.36
2022-08-12T02:53:24.471Z,19.34
2022-08-12T02:55:50.988Z,19.32
2022-08-12T02:58:19.706Z,19.28
2022-08-12T03:00:46.580Z,19.26
2022-08-12T03:03:14.636Z,19.25
2022-08-12T03:05:49.388Z,19.23
2022-08-12T03:08:31.938Z,19.22
2022-08-12T03:11:14.330Z,19.19
2022-08-12T03:13:50.800Z,19.16
2022-08-12T03:16:18.239Z,19.15
2022-08-12T03:18:46.265Z,19.15
2022-08-12T03:21:16.391Z,19.14
2022-08-12T03:23:45.685Z,19.11
2022-08-12T03:26:20.741Z,19.13
2022-08-12T03:28:53.622Z,19.08
2022-08-12T03:31:22.817Z,19.07
2022-08-12T03:34:00.725Z,19.08
2022-08-12T03:36:31.011Z,19.08
2022-08-12T03:39:16.581Z,19.08
2022-08-12T03:41:58.743Z,19.08
2022-08-12T03:45:05.574Z,19.05
2022-08-12T03:47:58.191Z,19.07
2022-08-12T03:50:44.085Z,19.04
2022-08-12T03:53:29.270Z,19.00
2022-08-12T03:56:15.035Z,19.00
2022-08-12T03:59:00.307Z,18.98
2022-08-12T04:01:27.401Z,18.94
2022-08-12T04:03:54.762Z,18.93
2022-08-12T04:06:34.847Z,18.88
2022-08-12T04:09:14.445Z,18.86
2022-08-12T04:12:02.171Z,18.88
2022-08-12T04:14:28.641Z,18.86
2022-08-12T04:16:57.108Z,18.87
2022-08-12T04:19:25.661Z,18.83
2022-08-12T04:22:02.002Z,18.82
2022-08-12T04:24:31.748Z,18.76
2022-08-12T04:26:58.291Z,18.81
2022-08-12T04:30:30.176Z,18.78
2022-08-12T04:32:13.876Z,18.74
2022-08-12T04:34:41.957Z,18.73
2022-08-12T04:37:08.854Z,18.81
2022-08-12T04:39:35.902Z,18.80
2022-08-12T04:42:02.522Z,18.86
2022-08-12T04:47:14.338Z,18.87
2022-08-12T04:49:41.490Z,18.92
2022-08-12T04:52:08.180Z,18.91
2022-08-12T04:54:35.254Z,18.87
2022-08-12T05:02:27.045Z,18.88
2022-08-12T05:05:00.602Z,18.90
2022-08-12T05:07:28.070Z,19.00
2022-08-12T05:10:01.132Z,19.02
2022-08-12T05:12:38.218Z,19.02
2022-08-12T05:15:19.868Z,19.03
2022-08-12T05:17:55.495Z,19.06
2022-08-12T05:20:22.640Z,19.07
2022-08-12T05:22:53.001Z,19.12
2022-08-12T05:25:25.125Z,19.20
2022-08-12T05:27:55.357Z,19.20
2022-08-12T05:30:24.767Z,19.29
2022-08-12T05:32:51.269Z,19.31
2022-08-12T05:35:22.445Z,19.43
2022-08-12T05:38:09.765Z,19.47
2022-08-12T05:40:36.446Z,19.55
2022-08-12T05:43:03.149Z,19.59
2022-08-12T05:45:29.677Z,19.63
2022-08-12T05:47:56.262Z,19.70
2022-08-12T05:50:23.041Z,19.77
2022-08-12T05:52:49.539Z,19.80
2022-08-12T05:55:20.404Z,19.89
2022-08-12T05:57:55.711Z,19.94
2022-08-12T06:00:26.607Z,20.05
2022-08-12T06:03:01.168Z,20.12
2022-08-12T06:05:54.473Z,20.20
2022-08-12T06:08:23.106Z,20.34
2022-08-12T06:13:54.028Z,20.58
2022-08-12T06:16:22.357Z,20.67
2022-08-12T06:18:49.539Z,20.76
2022-08-12T06:21:17.677Z,20.87
2022-08-12T06:23:45.430Z,20.96
2022-08-12T06:28:42.511Z,21.22
2022-08-12T06:31:25.777Z,21.29
2022-08-12T06:34:01.091Z,21.41
2022-08-12T06:36:40.659Z,21.50
2022-08-12T06:39:14.537Z,21.62
2022-08-12T06:42:04.860Z,21.75
2022-08-12T06:47:27.165Z,22.04
2022-08-12T06:49:53.682Z,22.11
2022-08-12T06:52:25.026Z,22.19
2022-08-12T06:54:53.555Z,22.33
2022-08-12T06:58:05.576Z,22.41
2022-08-12T07:00:11.419Z,22.64
2022-08-12T07:02:38.152Z,22.78
2022-08-12T07:05:05.185Z,22.88
2022-08-12T07:07:31.757Z,22.99
2022-08-12T07:10:07.447Z,23.06
2022-08-12T07:12:35.449Z,23.15
2022-08-12T07:15:02.566Z,23.27
2022-08-12T07:17:35.892Z,23.41
2022-08-12T07:20:10.021Z,23.58
2022-08-12T07:22:37.615Z,23.74
2022-08-12T07:25:22.905Z,23.77
2022-08-12T07:27:52.848Z,23.90
2022-08-12T07:30:19.424Z,23.98
2022-08-12T07:33:01.646Z,24.08
2022-08-12T07:35:29.599Z,24.28
2022-08-12T07:37:57.580Z,24.42
2022-08-12T07:40:25.899Z,24.58
2022-08-12T07:42:53.031Z,24.77
2022-08-12T07:47:59.792Z,24.93
2022-08-12T07:50:26.611Z,25.02
2022-08-12T07:52:53.236Z,25.25
2022-08-12T07:58:00.713Z,25.60
2022-08-12T08:03:14.409Z,25.75
2022-08-12T08:05:46.232Z,25.88
2022-08-12T08:08:17.981Z,26.06
2022-08-12T08:10:45.311Z,26.27
2022-08-12T08:13:12.583Z,26.35
2022-08-12T08:18:26.482Z,26.70
2022-08-12T08:20:55.139Z,26.98
2022-08-12T08:23:21.759Z,27.16
2022-08-12T08:25:57.988Z,27.53
2022-08-12T08:28:24.520Z,27.86
2022-08-12T08:30:52.882Z,28.05
2022-08-12T08:33:23.484Z,28.34
2022-08-12T08:35:54.609Z,28.38
2022-08-12T08:38:33.021Z,28.75
2022-08-12T08:42:15.681Z,29.65
2022-08-12T08:44:10.771Z,30.62
2022-08-12T08:46:38.375Z,30.96
2022-08-12T08:49:05.647Z,31.16
2022-08-12T08:51:33.255Z,31.98
2022-08-12T08:53:59.785Z,30.81
2022-08-12T08:56:27.181Z,31.47
2022-08-12T09:01:37.570Z,32.77
2022-08-12T09:05:08.206Z,32.70
2022-08-12T09:10:03.601Z,33.81
2022-08-12T09:12:51.745Z,34.06
2022-08-12T09:15:22.262Z,34.00
2022-08-12T09:18:05.409Z,34.92
2022-08-12T09:20:36.125Z,35.37
2022-08-12T09:24:00.217Z,34.78
2022-08-12T09:26:08.955Z,34.29
2022-08-12T09:28:37.004Z,34.35
2022-08-12T09:32:06.805Z,34.79
2022-08-12T09:34:27.872Z,35.17
2022-08-12T09:36:57.547Z,35.59
2022-08-12T09:40:02.061Z,36.50
2022-08-12T09:42:40.434Z,36.37
2022-08-12T09:46:06.524Z,35.53
2022-08-12T09:48:20.012Z,35.55
2022-08-12T09:50:51.966Z,36.54
2022-08-12T09:53:36.556Z,36.90
2022-08-12T09:58:58.027Z,37.76
2022-08-12T10:04:03.697Z,38.38
2022-08-12T10:06:53.962Z,37.39
2022-08-12T10:09:23.089Z,37.76
2022-08-12T10:12:14.139Z,37.39
2022-08-12T10:14:49.810Z,36.86
2022-08-12T10:17:22.835Z,37.02
2022-08-12T10:19:52.512Z,37.42
2022-08-12T10:22:39.691Z,37.02
2022-08-12T10:26:33.824Z,35.54
2022-08-12T10:28:33.138Z,36.27
2022-08-12T10:31:01.415Z,37.17
2022-08-12T10:33:43.652Z,36.83
2022-08-12T10:36:40.155Z,36.57
2022-08-12T10:40:03.243Z,36.85
2022-08-12T10:42:46.019Z,36.39
2022-08-12T10:48:20.056Z,36.98
2022-08-12T10:50:58.499Z,36.60
2022-08-12T10:53:45.703Z,36.68
2022-08-12T10:56:19.527Z,36.91
2022-08-12T10:58:48.508Z,37.93
2022-08-12T11:01:50.615Z,37.51
2022-08-12T11:04:22.492Z,37.48
2022-08-12T11:07:06.572Z,37.73
2022-08-12T11:10:01.052Z,38.12
2022-08-12T11:12:55.609Z,39.19
2022-08-12T11:15:21.148Z,39.61
2022-08-12T11:20:31.986Z,37.71
2022-08-12T11:23:04.269Z,37.52
2022-08-12T11:25:57.872Z,37.74
2022-08-12T11:28:34.434Z,38.73
2022-08-12T11:31:05.654Z,39.01
2022-08-12T11:34:05.951Z,38.39
2022-08-12T11:36:36.290Z,38.73
2022-08-12T11:39:06.630Z,39.75
2022-08-12T11:41:34.697Z,39.96
2022-08-12T11:44:33.339Z,39.31
2022-08-12T11:46:51.454Z,40.69
2022-08-12T11:49:20.402Z,40.57
2022-08-12T11:51:57.978Z,41.60
2022-08-12T11:54:25.765Z,40.84
2022-08-12T11:56:59.482Z,41.16
2022-08-12T12:04:54.781Z,41.09
2022-08-12T12:08:35.909Z,41.12
2022-08-12T12:10:09.992Z,41.84
2022-08-12T12:12:37.979Z,41.88
2022-08-12T12:15:09.467Z,41.29
2022-08-12T12:17:40.313Z,41.71
2022-08-12T12:20:12.541Z,42.29
2022-08-12T12:22:41.665Z,42.53
2022-08-12T12:25:13.389Z,42.58
2022-08-12T12:28:05.734Z,41.98
2022-08-12T12:30:34.632Z,42.48
2022-08-12T12:36:06.260Z,42.77
2022-08-12T12:38:15.054Z,42.26
2022-08-12T12:40:46.129Z,42.14
2022-08-12T12:43:28.928Z,42.14
2022-08-12T12:48:57.436Z,43.53
2022-08-12T12:51:55.175Z,42.81
2022-08-12T12:54:10.912Z,43.54
2022-08-12T12:56:40.490Z,42.89
2022-08-12T12:59:07.702Z,42.98
2022-08-12T13:01:54.945Z,42.33
2022-08-12T13:04:22.371Z,43.74
2022-08-12T13:06:51.996Z,42.66
2022-08-12T13:09:19.314Z,42.45
2022-08-12T13:11:59.600Z,42.93
2022-08-12T13:14:31.057Z,41.32
2022-08-12T13:17:02.694Z,41.85
2022-08-12T13:19:38.938Z,42.71
2022-08-12T13:22:20.098Z,42.75
2022-08-12T13:24:55.654Z,42.20
2022-08-12T13:27:34.652Z,43.08
2022-08-12T13:30:06.639Z,42.78
2022-08-12T13:32:37.440Z,41.25
2022-08-12T13:35:20.296Z,41.29
2022-08-12T13:37:55.849Z,40.82
2022-08-12T13:40:31.391Z,40.46
2022-08-12T13:43:01.884Z,41.50
2022-08-12T13:45:30.882Z,41.52
2022-08-12T13:48:11.526Z,39.71
2022-08-12T13:50:40.092Z,39.01
2022-08-12T13:53:24.305Z,38.91
2022-08-12T13:56:01.356Z,39.07
2022-08-12T13:58:30.173Z,37.07
2022-08-12T14:00:58.252Z,39.19
2022-08-12T14:03:28.594Z,40.04
2022-08-12T14:06:15.499Z,40.96
2022-08-12T14:11:25.339Z,40.10
2022-08-12T14:14:05.342Z,39.64
2022-08-12T14:16:49.012Z,39.18
2022-08-12T14:19:24.982Z,40.16
2022-08-12T14:21:59.201Z,38.68
2022-08-12T14:24:27.337Z,39.14
2022-08-12T14:30:04.356Z,38.97
2022-08-12T14:35:11.268Z,41.08
2022-08-12T14:37:55.974Z,41.62
2022-08-12T14:40:27.938Z,42.28
2022-08-12T14:42:55.477Z,42.13
2022-08-12T14:45:24.616Z,42.27
2022-08-12T14:48:12.578Z,43.04
2022-08-12T14:52:10.424Z,43.24
2022-08-12T14:59:23.799Z,43.76
2022-08-12T15:01:52.022Z,43.54
2022-08-12T15:04:22.538Z,43.78
2022-08-12T15:06:52.504Z,43.48
2022-08-12T15:09:19.455Z,43.46
2022-08-12T15:12:03.287Z,43.22
2022-08-12T15:14:30.468Z,43.87
2022-08-12T15:17:00.271Z,43.47
2022-08-12T15:20:28.647Z,43.12
2022-08-12T15:22:39.509Z,43.35
2022-08-12T15:25:07.268Z,43.86
2022-08-12T15:30:24.922Z,43.75
2022-08-12T15:32:56.746Z,44.42
2022-08-12T15:35:24.462Z,44.04
2022-08-12T15:40:48.213Z,44.13
2022-08-12T15:43:51.001Z,44.45
2022-08-12T15:48:47.087Z,44.79
2022-08-12T15:51:27.934Z,44.04
2022-08-12T15:54:33.352Z,44.54
2022-08-12T15:57:10.836Z,44.60
2022-08-12T15:59:59.909Z,44.74
2022-08-12T16:02:51.984Z,45.09
2022-08-12T16:06:11.685Z,42.85
2022-08-12T16:08:15.236Z,43.51
2022-08-12T16:10:44.789Z,43.68
2022-08-12T16:13:25.215Z,44.09
2022-08-12T16:16:04.151Z,43.98
2022-08-12T16:18:49.873Z,43.91
2022-08-12T16:21:52.776Z,44.05
2022-08-12T16:24:10.799Z,42.54
2022-08-12T16:26:51.427Z,42.62
2022-08-12T16:29:53.261Z,42.83
2022-08-12T16:32:23.217Z,42.40
2022-08-12T16:35:00.011Z,42.96
2022-08-12T16:37:32.957Z,42.80
2022-08-12T16:40:15.401Z,42.50
2022-08-12T16:42:53.789Z,42.78
2022-08-12T16:46:08.038Z,42.28
2022-08-12T16:48:34.879Z,42.29
2022-08-12T16:51:12.558Z,42.43
2022-08-12T16:53:43.975Z,42.45
2022-08-12T16:56:16.792Z,41.89
2022-08-12T16:58:44.080Z,42.19
2022-08-12T17:01:14.531Z,41.84
2022-08-12T17:04:08.308Z,41.48
2022-08-12T17:06:35.596Z,41.73
2022-08-12T17:09:08.719Z,41.96
2022-08-12T17:11:44.260Z,41.70
2022-08-12T17:14:10.904Z,41.57
2022-08-12T17:16:40.397Z,41.04
2022-08-12T17:19:09.553Z,40.44
2022-08-12T17:21:40.788Z,40.46
2022-08-12T17:24:30.542Z,39.80
2022-08-12T17:26:59.024Z,38.76
2022-08-12T17:32:14.269Z,38.08
2022-08-12T17:34:59.927Z,37.74
2022-08-12T17:37:26.921Z,37.63
2022-08-12T17:42:35.536Z,37.55
2022-08-12T17:45:18.589Z,37.15
2022-08-12T17:48:01.817Z,37.33
2022-08-12T17:50:33.823Z,37.15
2022-08-12T17:53:02.386Z,36.76
2022-08-12T17:55:40.527Z,36.49
2022-08-12T17:58:13.790Z,35.37
2022-08-12T18:00:44.189Z,34.87
2022-08-12T18:04:05.023Z,34.36
2022-08-12T18:06:08.085Z,33.39
2022-08-12T18:08:43.426Z,32.75
2022-08-12T18:12:06.660Z,32.32
2022-08-12T18:14:28.609Z,32.09
2022-08-12T18:16:56.941Z,31.79
2022-08-12T18:19:23.781Z,31.67
2022-08-12T18:22:01.105Z,31.63
2022-08-12T18:24:31.969Z,31.43
2022-08-12T18:26:59.870Z,31.25
2022-08-12T18:32:58.605Z,30.90
2022-08-12T18:35:29.981Z,30.74
2022-08-12T18:38:16.692Z,30.87
2022-08-12T18:41:06.154Z,30.68
2022-08-12T18:43:57.349Z,30.62
2022-08-12T18:46:29.360Z,30.52
2022-08-12T18:48:57.003Z,30.42
2022-08-12T18:51:51.818Z,30.25
2022-08-12T18:54:52.233Z,30.15
2022-08-12T18:58:07.006Z,29.91
2022-08-12T19:00:22.086Z,29.83
2022-08-12T19:02:50.610Z,29.57
2022-08-12T19:05:20.319Z,29.55
2022-08-12T19:08:00.663Z,29.34
2022-08-12T19:10:43.104Z,29.26
2022-08-12T19:13:35.876Z,29.22
2022-08-12T19:16:02.272Z,28.99
2022-08-12T19:18:31.390Z,29.07
2022-08-12T19:21:11.931Z,28.93
2022-08-12T19:23:43.132Z,28.87
2022-08-12T19:28:57.529Z,28.66
2022-08-12T19:31:45.265Z,28.64
2022-08-12T19:34:55.942Z,28.42
2022-08-12T19:37:38.528Z,28.35
2022-08-12T19:40:32.351Z,28.17
2022-08-12T19:43:13.438Z,28.16
2022-08-12T19:45:51.492Z,28.04
2022-08-12T19:48:19.948Z,27.97
2022-08-12T19:50:49.901Z,27.89
2022-08-12T19:53:18.665Z,27.82
2022-08-12T19:55:50.817Z,27.75
2022-08-12T19:58:19.398Z,27.51
2022-08-12T20:00:52.519Z,27.43
2022-08-12T20:03:38.879Z,27.39
2022-08-12T20:06:14.068Z,27.28
2022-08-12T20:08:49.329Z,27.17
2022-08-12T20:12:13.147Z,27.15
2022-08-12T20:14:18.958Z,27.02
2022-08-12T20:16:51.679Z,26.90
2022-08-12T20:19:21.236Z,26.85
2022-08-12T20:21:50.308Z,26.79
2022-08-12T20:24:16.848Z,26.75
2022-08-12T20:26:46.362Z,26.69
2022-08-12T20:29:13.722Z,26.61
2022-08-12T20:31:40.773Z,26.48
2022-08-12T20:34:09.143Z,26.39
2022-08-12T20:36:44.283Z,26.38
2022-08-12T20:39:37.490Z,26.29
2022-08-12T20:42:07.273Z,26.21
2022-08-12T20:44:39.717Z,26.17
2022-08-12T20:47:18.154Z,26.14
2022-08-12T20:49:55.375Z,26.07
2022-08-12T20:52:41.656Z,25.97
2022-08-12T20:55:15.805Z,25.90
2022-08-12T20:58:04.745Z,25.87
2022-08-12T21:00:31.794Z,25.79
2022-08-12T21:03:19.484Z,25.67
2022-08-12T21:06:12.940Z,25.57
2022-08-12T21:08:40.402Z,25.56
2022-08-12T21:11:09.615Z,25.55
2022-08-12T21:13:39.117Z,25.44
2022-08-12T21:16:06.536Z,25.32
2022-08-12T21:18:37.589Z,25.29
2022-08-12T21:21:06.571Z,25.25
2022-08-12T21:23:37.104Z,25.23
2022-08-12T21:26:06.043Z,25.16
2022-08-12T21:28:38.227Z,25.15
2022-08-12T21:32:35.174Z,25.04
2022-08-12T21:34:08.874Z,24.94
2022-08-12T21:36:39.780Z,24.92
2022-08-12T21:39:19.230Z,24.85
2022-08-12T21:41:50.870Z,24.80
2022-08-12T21:44:24.771Z,24.75
2022-08-12T21:47:19.982Z,24.70
2022-08-12T21:49:54.595Z,24.59
2022-08-12T21:52:28.244Z,24.52
2022-08-12T21:55:18.179Z,24.46
2022-08-12T21:57:53.050Z,24.38
2022-08-12T22:00:33.242Z,24.37
2022-08-12T22:04:04.446Z,24.31
2022-08-12T22:06:30.409Z,24.24
2022-08-12T22:09:15.320Z,24.15
2022-08-12T22:11:49.115Z,24.09
2022-08-12T22:14:26.047Z,24.04
2022-08-12T22:16:54.223Z,24.00
2022-08-12T22:19:23.037Z,23.95
2022-08-12T22:21:54.874Z,23.88
2022-08-12T22:24:26.257Z,23.76
2022-08-12T22:26:56.719Z,23.69
2022-08-12T22:29:42.412Z,23.67
2022-08-12T22:32:11.917Z,23.54
2022-08-12T22:34:39.330Z,23.50
2022-08-12T22:37:05.941Z,23.46
2022-08-12T22:39:43.871Z,23.43
2022-08-12T22:42:30.643Z,23.36
2022-08-12T22:45:16.445Z,23.26
2022-08-12T22:47:54.956Z,23.22
2022-08-12T22:50:27.778Z,23.14
2022-08-12T22:53:17.436Z,23.09
2022-08-12T22:55:58.976Z,22.97
2022-08-12T22:58:32.005Z,22.90
2022-08-12T23:01:02.338Z,22.83
2022-08-12T23:03:49.619Z,22.73
2022-08-12T23:06:23.825Z,22.75
2022-08-12T23:08:52.046Z,22.66
2022-08-12T23:11:23.322Z,22.63
2022-08-12T23:13:55.303Z,22.62
2022-08-12T23:16:31.663Z,22.60
2022-08-12T23:19:18.106Z,22.60
2022-08-12T23:22:06.482Z,22.55
2022-08-12T23:24:56.010Z,22.48
2022-08-12T23:27:51.628Z,22.45
2022-08-12T23:30:31.283Z,22.43
2022-08-12T23:33:00.712Z,22.42
2022-08-12T23:35:28.439Z,22.40
2022-08-12T23:38:30.825Z,22.36
2022-08-12T23:41:01.334Z,22.32
2022-08-12T23:43:39.472Z,22.29
2022-08-12T23:46:08.599Z,22.23
2022-08-12T23:48:35.413Z,22.16
2022-08-12T23:51:23.040Z,22.07
2022-08-12T23:54:07.106Z,22.00
2022-08-12T23:56:35.614Z,21.97
2022-08-12T23:59:04.909Z,21.91
